sensor_id;sensor_type;location;lat;lon;timestamp;pressure;altitude;pressure_sealevel;temperature;humidity
70133;BME280;57495;49.922;7.966;2023-04-01T00:01:04;98256.50;;;9.65;94.08
70133;BME280;57495;49.922;7.966;2023-04-01T00:03:06;98252.47;;;9.69;93.18
70133;BME280;57495;49.922;7.966;2023-04-01T00:05:08;98262.84;;;9.64;94.15
70133;BME280;57495;49.922;7.966;2023-04-01T00:07:10;98245.09;;;9.71;93.10
70133;BME280;57495;49.922;7.966;2023-04-01T00:09:13;98253.84;;;9.65;93.68
70133;BME280;57495;49.922;7.966;2023-04-01T00:11:15;98250.69;;;9.61;94.28
70133;BME280;57495;49.922;7.966;2023-04-01T00:13:17;98258.16;;;9.66;94.11
70133;BME280;57495;49.922;7.966;2023-04-01T00:15:19;98259.19;;;9.65;93.95
70133;BME280;57495;49.922;7.966;2023-04-01T00:17:20;98261.22;;;9.78;91.57
70133;BME280;57495;49.922;7.966;2023-04-01T00:19:22;98254.50;;;9.67;93.15
70133;BME280;57495;49.922;7.966;2023-04-01T00:21:24;98266.53;;;9.63;93.74
70133;BME280;57495;49.922;7.966;2023-04-01T00:23:25;98246.38;;;9.75;92.04
70133;BME280;57495;49.922;7.966;2023-04-01T00:25:29;98254.69;;;9.80;91.06
70133;BME280;57495;49.922;7.966;2023-04-01T00:27:30;98245.69;;;9.81;90.65
70133;BME280;57495;49.922;7.966;2023-04-01T00:29:33;98254.13;;;9.70;92.46
70133;BME280;57495;49.922;7.966;2023-04-01T00:31:34;98257.19;;;9.82;90.16
70133;BME280;57495;49.922;7.966;2023-04-01T00:33:36;98247.13;;;9.69;92.28
70133;BME280;57495;49.922;7.966;2023-04-01T00:35:39;98249.16;;;9.67;92.04
70133;BME280;57495;49.922;7.966;2023-04-01T00:37:42;98241.78;;;9.69;91.67
70133;BME280;57495;49.922;7.966;2023-04-01T00:39:43;98258.88;;;9.60;93.20
70133;BME280;57495;49.922;7.966;2023-04-01T00:41:46;98247.38;;;9.59;93.16
70133;BME280;57495;49.922;7.966;2023-04-01T00:43:49;98255.22;;;9.61;91.54
70133;BME280;57495;49.922;7.966;2023-04-01T00:45:51;98250.31;;;9.50;93.28
70133;BME280;57495;49.922;7.966;2023-04-01T00:47:53;98244.31;;;9.47;93.32
70133;BME280;57495;49.922;7.966;2023-04-01T00:49:54;98242.66;;;9.46;92.93
70133;BME280;57495;49.922;7.966;2023-04-01T00:52:00;98241.94;;;9.53;92.12
70133;BME280;57495;49.922;7.966;2023-04-01T00:54:02;98250.50;;;9.48;93.33
70133;BME280;57495;49.922;7.966;2023-04-01T00:56:07;98242.84;;;9.45;93.50
70133;BME280;57495;49.922;7.966;2023-04-01T00:58:14;98254.34;;;9.45;93.30
70133;BME280;57495;49.922;7.966;2023-04-01T01:00:18;98240.38;;;9.58;91.52
70133;BME280;57495;49.922;7.966;2023-04-01T01:02:20;98246.56;;;9.59;92.33
70133;BME280;57495;49.922;7.966;2023-04-01T01:04:24;98240.50;;;9.65;90.48
70133;BME280;57495;49.922;7.966;2023-04-01T01:06:38;98236.81;;;9.66;90.28
70133;BME280;57495;49.922;7.966;2023-04-01T01:09:04;98249.03;;;9.60;90.34
70133;BME280;57495;49.922;7.966;2023-04-01T01:11:10;98243.22;;;9.57;91.24
70133;BME280;57495;49.922;7.966;2023-04-01T01:13:17;98239.69;;;9.64;90.18
70133;BME280;57495;49.922;7.966;2023-04-01T01:15:25;98235.91;;;9.59;90.95
70133;BME280;57495;49.922;7.966;2023-04-01T01:17:33;98234.69;;;9.61;90.43
70133;BME280;57495;49.922;7.966;2023-04-01T01:19:58;98235.22;;;9.57;91.43
70133;BME280;57495;49.922;7.966;2023-04-01T01:22:20;98235.03;;;9.58;91.42
70133;BME280;57495;49.922;7.966;2023-04-01T01:24:33;98262.59;;;9.59;91.11
70133;BME280;57495;49.922;7.966;2023-04-01T01:26:53;98243.97;;;9.51;92.74
70133;BME280;57495;49.922;7.966;2023-04-01T01:29:05;98240.28;;;9.52;92.45
70133;BME280;57495;49.922;7.966;2023-04-01T01:31:15;98265.78;;;9.54;92.31
70133;BME280;57495;49.922;7.966;2023-04-01T01:33:29;98246.38;;;9.60;91.34
70133;BME280;57495;49.922;7.966;2023-04-01T01:35:37;98234.56;;;9.55;92.02
70133;BME280;57495;49.922;7.966;2023-04-01T01:37:40;98236.25;;;9.56;91.99
70133;BME280;57495;49.922;7.966;2023-04-01T01:39:46;98237.00;;;9.64;90.92
70133;BME280;57495;49.922;7.966;2023-04-01T01:41:49;98222.91;;;9.56;91.99
70133;BME280;57495;49.922;7.966;2023-04-01T01:43:53;98232.28;;;9.52;92.02
70133;BME280;57495;49.922;7.966;2023-04-01T01:45:59;98227.66;;;9.45;92.65
70133;BME280;57495;49.922;7.966;2023-04-01T01:48:04;98224.63;;;9.48;92.55
70133;BME280;57495;49.922;7.966;2023-04-01T01:50:08;98225.72;;;9.39;92.78
70133;BME280;57495;49.922;7.966;2023-04-01T01:52:13;98213.38;;;9.38;92.70
70133;BME280;57495;49.922;7.966;2023-04-01T01:54:16;98223.69;;;9.41;92.17
70133;BME280;57495;49.922;7.966;2023-04-01T01:56:18;98217.63;;;9.47;91.40
70133;BME280;57495;49.922;7.966;2023-04-01T01:58:23;98213.75;;;9.35;92.65
70133;BME280;57495;49.922;7.966;2023-04-01T02:00:26;98213.03;;;9.41;91.92
70133;BME280;57495;49.922;7.966;2023-04-01T02:02:29;98210.19;;;9.43;92.25
70133;BME280;57495;49.922;7.966;2023-04-01T02:04:32;98237.28;;;9.32;93.52
70133;BME280;57495;49.922;7.966;2023-04-01T02:06:38;98221.47;;;9.30;94.18
70133;BME280;57495;49.922;7.966;2023-04-01T02:08:44;98231.41;;;9.36;93.65
70133;BME280;57495;49.922;7.966;2023-04-01T02:10:56;98211.72;;;9.37;93.94
70133;BME280;57495;49.922;7.966;2023-04-01T02:13:02;98209.78;;;9.31;94.81
70133;BME280;57495;49.922;7.966;2023-04-01T02:15:09;98215.03;;;9.39;93.82
70133;BME280;57495;49.922;7.966;2023-04-01T02:17:14;98202.25;;;9.35;94.62
70133;BME280;57495;49.922;7.966;2023-04-01T02:19:18;98207.03;;;9.39;93.69
70133;BME280;57495;49.922;7.966;2023-04-01T02:21:24;98231.69;;;9.41;92.94
70133;BME280;57495;49.922;7.966;2023-04-01T02:23:28;98211.09;;;9.35;93.87
70133;BME280;57495;49.922;7.966;2023-04-01T02:25:34;98222.06;;;9.40;93.26
70133;BME280;57495;49.922;7.966;2023-04-01T02:27:37;98213.56;;;9.37;93.51
70133;BME280;57495;49.922;7.966;2023-04-01T02:29:39;98212.03;;;9.42;93.33
70133;BME280;57495;49.922;7.966;2023-04-01T02:31:42;98206.75;;;9.34;94.01
70133;BME280;57495;49.922;7.966;2023-04-01T02:33:44;98214.44;;;9.29;94.75
70133;BME280;57495;49.922;7.966;2023-04-01T02:35:46;98211.50;;;9.24;95.51
70133;BME280;57495;49.922;7.966;2023-04-01T02:37:52;98202.50;;;9.25;95.19
70133;BME280;57495;49.922;7.966;2023-04-01T02:39:59;98208.91;;;9.16;96.76
70133;BME280;57495;49.922;7.966;2023-04-01T02:42:02;98206.06;;;9.17;96.42
70133;BME280;57495;49.922;7.966;2023-04-01T02:44:04;98211.88;;;9.21;95.92
70133;BME280;57495;49.922;7.966;2023-04-01T02:46:07;98213.88;;;9.19;96.40
70133;BME280;57495;49.922;7.966;2023-04-01T02:48:09;98209.19;;;9.21;95.92
70133;BME280;57495;49.922;7.966;2023-04-01T02:50:10;98212.50;;;9.23;95.71
70133;BME280;57495;49.922;7.966;2023-04-01T02:52:12;98200.00;;;9.23;95.82
70133;BME280;57495;49.922;7.966;2023-04-01T02:54:13;98208.19;;;9.22;95.98
70133;BME280;57495;49.922;7.966;2023-04-01T02:56:15;98198.53;;;9.21;96.08
70133;BME280;57495;49.922;7.966;2023-04-01T02:58:18;98197.63;;;9.28;94.39
70133;BME280;57495;49.922;7.966;2023-04-01T03:00:20;98192.84;;;9.24;95.69
70133;BME280;57495;49.922;7.966;2023-04-01T03:02:21;98188.88;;;9.20;96.19
70133;BME280;57495;49.922;7.966;2023-04-01T03:04:23;98197.53;;;9.22;95.88
70133;BME280;57495;49.922;7.966;2023-04-01T03:06:25;98189.16;;;9.25;95.83
70133;BME280;57495;49.922;7.966;2023-04-01T03:08:26;98191.19;;;9.23;96.43
70133;BME280;57495;49.922;7.966;2023-04-01T03:10:28;98194.22;;;9.20;96.58
70133;BME280;57495;49.922;7.966;2023-04-01T03:12:29;98193.53;;;9.18;97.18
70133;BME280;57495;49.922;7.966;2023-04-01T03:14:32;98206.53;;;9.21;96.70
70133;BME280;57495;49.922;7.966;2023-04-01T03:16:33;98205.88;;;9.19;97.16
70133;BME280;57495;49.922;7.966;2023-04-01T03:18:35;98196.59;;;9.15;97.62
70133;BME280;57495;49.922;7.966;2023-04-01T03:20:36;98190.31;;;9.07;98.75
70133;BME280;57495;49.922;7.966;2023-04-01T03:22:38;98197.50;;;9.07;98.77
70133;BME280;57495;49.922;7.966;2023-04-01T03:24:39;98198.72;;;8.96;100.00
70133;BME280;57495;49.922;7.966;2023-04-01T03:26:40;98198.47;;;9.06;99.48
70133;BME280;57495;49.922;7.966;2023-04-01T03:28:42;98233.63;;;9.09;99.05
70133;BME280;57495;49.922;7.966;2023-04-01T03:30:45;98191.94;;;9.08;99.36
70133;BME280;57495;49.922;7.966;2023-04-01T03:32:46;98203.63;;;9.07;99.40
70133;BME280;57495;49.922;7.966;2023-04-01T03:34:47;98201.97;;;9.06;100.00
70133;BME280;57495;49.922;7.966;2023-04-01T03:36:49;98189.84;;;9.04;100.00
70133;BME280;57495;49.922;7.966;2023-04-01T03:38:51;98190.41;;;9.14;98.60
70133;BME280;57495;49.922;7.966;2023-04-01T03:40:52;98196.75;;;9.13;98.58
70133;BME280;57495;49.922;7.966;2023-04-01T03:42:54;98193.69;;;9.01;100.00
70133;BME280;57495;49.922;7.966;2023-04-01T03:44:56;98199.19;;;9.00;100.00
70133;BME280;57495;49.922;7.966;2023-04-01T03:46:58;98200.03;;;9.00;100.00
70133;BME280;57495;49.922;7.966;2023-04-01T03:49:00;98194.88;;;8.99;100.00
70133;BME280;57495;49.922;7.966;2023-04-01T03:51:06;98180.53;;;9.00;100.00
70133;BME280;57495;49.922;7.966;2023-04-01T03:53:08;98188.16;;;9.03;99.74
70133;BME280;57495;49.922;7.966;2023-04-01T03:55:10;98189.22;;;8.94;100.00
70133;BME280;57495;49.922;7.966;2023-04-01T03:57:12;98191.03;;;9.01;100.00
70133;BME280;57495;49.922;7.966;2023-04-01T03:59:13;98182.72;;;8.96;100.00
70133;BME280;57495;49.922;7.966;2023-04-01T04:01:17;98187.94;;;8.89;100.00
70133;BME280;57495;49.922;7.966;2023-04-01T04:03:20;98187.47;;;8.86;100.00
70133;BME280;57495;49.922;7.966;2023-04-01T04:05:22;98194.81;;;8.84;100.00
70133;BME280;57495;49.922;7.966;2023-04-01T04:07:23;98206.41;;;8.91;100.00
70133;BME280;57495;49.922;7.966;2023-04-01T04:09:25;98193.16;;;8.83;100.00
70133;BME280;57495;49.922;7.966;2023-04-01T04:11:26;98196.47;;;8.85;100.00
70133;BME280;57495;49.922;7.966;2023-04-01T04:13:27;98191.50;;;8.82;100.00
70133;BME280;57495;49.922;7.966;2023-04-01T04:15:29;98191.50;;;8.82;100.00
70133;BME280;57495;49.922;7.966;2023-04-01T04:17:30;98198.84;;;8.80;100.00
70133;BME280;57495;49.922;7.966;2023-04-01T04:19:33;98198.84;;;8.80;100.00
70133;BME280;57495;49.922;7.966;2023-04-01T04:21:35;98194.16;;;8.82;100.00
70133;BME280;57495;49.922;7.966;2023-04-01T04:23:36;98201.69;;;8.78;100.00
70133;BME280;57495;49.922;7.966;2023-04-01T04:25:38;98202.16;;;8.82;100.00
70133;BME280;57495;49.922;7.966;2023-04-01T04:27:39;98205.47;;;8.84;100.00
70133;BME280;57495;49.922;7.966;2023-04-01T04:29:41;98190.50;;;8.83;100.00
70133;BME280;57495;49.922;7.966;2023-04-01T04:31:43;98196.66;;;8.83;100.00
70133;BME280;57495;49.922;7.966;2023-04-01T04:33:44;98201.34;;;8.81;100.00
70133;BME280;57495;49.922;7.966;2023-04-01T04:35:47;98199.66;;;8.80;100.00
70133;BME280;57495;49.922;7.966;2023-04-01T04:37:48;98200.84;;;8.78;100.00
70133;BME280;57495;49.922;7.966;2023-04-01T04:39:50;98216.00;;;8.77;100.00
70133;BME280;57495;49.922;7.966;2023-04-01T04:41:51;98203.63;;;8.84;100.00
70133;BME280;57495;49.922;7.966;2023-04-01T04:43:54;98199.66;;;8.80;100.00
70133;BME280;57495;49.922;7.966;2023-04-01T04:45:55;98192.31;;;8.82;100.00
70133;BME280;57495;49.922;7.966;2023-04-01T04:47:57;98194.66;;;8.77;100.00
70133;BME280;57495;49.922;7.966;2023-04-01T04:49:58;98187.22;;;8.73;100.00
70133;BME280;57495;49.922;7.966;2023-04-01T04:52:01;98193.03;;;8.76;100.00
70133;BME280;57495;49.922;7.966;2023-04-01T04:54:03;98192.22;;;8.76;100.00
70133;BME280;57495;49.922;7.966;2023-04-01T04:56:05;98199.91;;;8.70;100.00
70133;BME280;57495;49.922;7.966;2023-04-01T04:58:06;98190.53;;;8.75;100.00
70133;BME280;57495;49.922;7.966;2023-04-01T05:00:09;98197.53;;;8.76;100.00
70133;BME280;57495;49.922;7.966;2023-04-01T05:02:11;98201.50;;;8.80;100.00
70133;BME280;57495;49.922;7.966;2023-04-01T05:04:13;98210.22;;;8.74;100.00
70133;BME280;57495;49.922;7.966;2023-04-01T05:06:16;98194.56;;;8.70;100.00
70133;BME280;57495;49.922;7.966;2023-04-01T05:08:19;98210.22;;;8.74;100.00
70133;BME280;57495;49.922;7.966;2023-04-01T05:10:20;98204.16;;;8.80;100.00
70133;BME280;57495;49.922;7.966;2023-04-01T05:12:22;98202.50;;;8.79;100.00
70133;BME280;57495;49.922;7.966;2023-04-01T05:14:23;98209.84;;;8.77;100.00
70133;BME280;57495;49.922;7.966;2023-04-01T05:16:25;98201.19;;;8.75;100.00
70133;BME280;57495;49.922;7.966;2023-04-01T05:18:26;98201.53;;;8.71;100.00
70133;BME280;57495;49.922;7.966;2023-04-01T05:20:28;98199.59;;;8.65;100.00
70133;BME280;57495;49.922;7.966;2023-04-01T05:22:29;98202.25;;;8.65;100.00
70133;BME280;57495;49.922;7.966;2023-04-01T05:24:32;98202.59;;;8.62;100.00
70133;BME280;57495;49.922;7.966;2023-04-01T05:26:34;98195.06;;;8.66;100.00
70133;BME280;57495;49.922;7.966;2023-04-01T05:28:37;98204.25;;;8.63;100.00
70133;BME280;57495;49.922;7.966;2023-04-01T05:30:39;98196.63;;;8.60;100.00
70133;BME280;57495;49.922;7.966;2023-04-01T05:32:41;98216.88;;;8.69;100.00
70133;BME280;57495;49.922;7.966;2023-04-01T05:34:43;98197.63;;;8.59;100.00
70133;BME280;57495;49.922;7.966;2023-04-01T05:36:45;98204.25;;;8.63;100.00
70133;BME280;57495;49.922;7.966;2023-04-01T05:38:46;98202.59;;;8.62;100.00
70133;BME280;57495;49.922;7.966;2023-04-01T05:40:49;98214.94;;;8.63;100.00
70133;BME280;57495;49.922;7.966;2023-04-01T05:42:51;98212.41;;;8.70;100.00
70133;BME280;57495;49.922;7.966;2023-04-01T05:44:52;98196.88;;;8.74;100.00
70133;BME280;57495;49.922;7.966;2023-04-01T05:46:53;98193.91;;;8.68;100.00
70133;BME280;57495;49.922;7.966;2023-04-01T05:48:55;98194.56;;;8.70;100.00
70133;BME280;57495;49.922;7.966;2023-04-01T05:50:56;98201.91;;;8.68;100.00
70133;BME280;57495;49.922;7.966;2023-04-01T05:52:58;98192.56;;;8.73;100.00
70133;BME280;57495;49.922;7.966;2023-04-01T05:54:59;98197.88;;;8.73;100.00
70133;BME280;57495;49.922;7.966;2023-04-01T05:57:02;98194.22;;;8.74;100.00
70133;BME280;57495;49.922;7.966;2023-04-01T05:59:04;98190.53;;;8.75;100.00
70133;BME280;57495;49.922;7.966;2023-04-01T06:01:07;98190.19;;;8.78;100.00
70133;BME280;57495;49.922;7.966;2023-04-01T06:03:09;98184.50;;;8.81;100.00
70133;BME280;57495;49.922;7.966;2023-04-01T06:05:17;98189.00;;;8.80;100.00
70133;BME280;57495;49.922;7.966;2023-04-01T06:07:19;98191.00;;;8.78;100.00
70133;BME280;57495;49.922;7.966;2023-04-01T06:09:26;98195.53;;;8.78;100.00
70133;BME280;57495;49.922;7.966;2023-04-01T06:11:32;98197.34;;;8.77;100.00
70133;BME280;57495;49.922;7.966;2023-04-01T06:13:50;98206.53;;;8.75;100.00
70133;BME280;57495;49.922;7.966;2023-04-01T06:16:05;98197.88;;;8.73;100.00
70133;BME280;57495;49.922;7.966;2023-04-01T06:18:33;98203.03;;;8.74;100.00
70133;BME280;57495;49.922;7.966;2023-04-01T06:20:41;98204.91;;;8.65;100.00
70133;BME280;57495;49.922;7.966;2023-04-01T06:23:05;98204.25;;;8.63;100.00
70133;BME280;57495;49.922;7.966;2023-04-01T06:25:24;98207.09;;;8.62;100.00
70133;BME280;57495;49.922;7.966;2023-04-01T06:27:40;98207.91;;;8.62;100.00
70133;BME280;57495;49.922;7.966;2023-04-01T06:29:58;98204.59;;;8.60;100.00
70133;BME280;57495;49.922;7.966;2023-04-01T06:32:22;98213.44;;;8.61;100.00
70133;BME280;57495;49.922;7.966;2023-04-01T06:34:40;98211.13;;;8.58;100.00
70133;BME280;57495;49.922;7.966;2023-04-01T06:37:02;98209.94;;;8.60;100.00
70133;BME280;57495;49.922;7.966;2023-04-01T06:39:15;98215.41;;;8.67;100.00
70133;BME280;57495;49.922;7.966;2023-04-01T06:41:32;98196.59;;;8.68;100.00
70133;BME280;57495;49.922;7.966;2023-04-01T06:43:47;98213.53;;;8.76;100.00
70133;BME280;57495;49.922;7.966;2023-04-01T06:46:02;98205.00;;;8.80;100.00
70133;BME280;57495;49.922;7.966;2023-04-01T06:48:20;98200.13;;;8.84;100.00
70133;BME280;57495;49.922;7.966;2023-04-01T06:50:26;98191.16;;;8.85;100.00
70133;BME280;57495;49.922;7.966;2023-04-01T06:52:38;98194.09;;;8.90;100.00
70133;BME280;57495;49.922;7.966;2023-04-01T06:54:47;98200.38;;;8.97;100.00
70133;BME280;57495;49.922;7.966;2023-04-01T06:56:54;98200.84;;;9.01;100.00
70133;BME280;57495;49.922;7.966;2023-04-01T06:59:01;98201.69;;;9.01;100.00
70133;BME280;57495;49.922;7.966;2023-04-01T07:01:08;98201.16;;;9.06;100.00
70133;BME280;57495;49.922;7.966;2023-04-01T07:03:17;98208.31;;;9.05;100.00
70133;BME280;57495;49.922;7.966;2023-04-01T07:05:20;98207.94;;;9.08;100.00
70133;BME280;57495;49.922;7.966;2023-04-01T07:07:29;98202.28;;;9.12;100.00
70133;BME280;57495;49.922;7.966;2023-04-01T07:09:36;98207.31;;;9.06;100.00
70133;BME280;57495;49.922;7.966;2023-04-01T07:11:39;98211.28;;;9.11;100.00
70133;BME280;57495;49.922;7.966;2023-04-01T07:13:46;98210.91;;;9.14;100.00
70133;BME280;57495;49.922;7.966;2023-04-01T07:15:56;98215.91;;;9.17;100.00
70133;BME280;57495;49.922;7.966;2023-04-01T07:18:03;98207.56;;;9.20;100.00
70133;BME280;57495;49.922;7.966;2023-04-01T07:20:12;98210.66;;;9.23;100.00
70133;BME280;57495;49.922;7.966;2023-04-01T07:22:23;98214.09;;;9.32;100.00
70133;BME280;57495;49.922;7.966;2023-04-01T07:24:32;98207.69;;;9.41;100.00
70133;BME280;57495;49.922;7.966;2023-04-01T07:26:35;98216.34;;;9.43;100.00
70133;BME280;57495;49.922;7.966;2023-04-01T07:28:36;98209.63;;;9.47;100.00
70133;BME280;57495;49.922;7.966;2023-04-01T07:30:49;98207.97;;;9.46;100.00
70133;BME280;57495;49.922;7.966;2023-04-01T07:32:56;98213.97;;;9.48;100.00
70133;BME280;57495;49.922;7.966;2023-04-01T07:35:13;98216.81;;;9.47;100.00
70133;BME280;57495;49.922;7.966;2023-04-01T07:37:25;98219.75;;;9.52;100.00
70133;BME280;57495;49.922;7.966;2023-04-01T07:39:38;98229.88;;;9.57;100.00
70133;BME280;57495;49.922;7.966;2023-04-01T07:41:49;98217.09;;;9.52;100.00
70133;BME280;57495;49.922;7.966;2023-04-01T07:43:59;98220.59;;;9.53;100.00
70133;BME280;57495;49.922;7.966;2023-04-01T07:46:13;98216.44;;;9.50;100.00
70133;BME280;57495;49.922;7.966;2023-04-01T07:48:23;98228.97;;;9.50;100.00
70133;BME280;57495;49.922;7.966;2023-04-01T07:50:31;98223.25;;;9.53;100.00
70133;BME280;57495;49.922;7.966;2023-04-01T07:52:37;98235.31;;;9.48;100.00
70133;BME280;57495;49.922;7.966;2023-04-01T07:54:49;98225.63;;;9.47;100.00
70133;BME280;57495;49.922;7.966;2023-04-01T07:57:01;98242.31;;;9.50;100.00
70133;BME280;57495;49.922;7.966;2023-04-01T07:59:10;98240.28;;;9.52;100.00
70133;BME280;57495;49.922;7.966;2023-04-01T08:01:25;98236.06;;;9.57;100.00
70133;BME280;57495;49.922;7.966;2023-04-01T08:03:38;98242.41;;;9.56;100.00
70133;BME280;57495;49.922;7.966;2023-04-01T08:05:53;98242.97;;;9.52;100.00
70133;BME280;57495;49.922;7.966;2023-04-01T08:08:05;98252.25;;;9.56;100.00
70133;BME280;57495;49.922;7.966;2023-04-01T08:10:14;98246.09;;;9.55;100.00
70133;BME280;57495;49.922;7.966;2023-04-01T08:12:31;98243.97;;;9.51;100.00
70133;BME280;57495;49.922;7.966;2023-04-01T08:14:41;98245.25;;;9.55;100.00
70133;BME280;57495;49.922;7.966;2023-04-01T08:16:51;98248.56;;;9.57;100.00
70133;BME280;57495;49.922;7.966;2023-04-01T08:19:04;98252.56;;;9.61;100.00
70133;BME280;57495;49.922;7.966;2023-04-01T08:21:14;98264.22;;;9.60;100.00
70133;BME280;57495;49.922;7.966;2023-04-01T08:23:21;98253.53;;;9.60;100.00
70133;BME280;57495;49.922;7.966;2023-04-01T08:25:25;98259.47;;;9.70;100.00
70133;BME280;57495;49.922;7.966;2023-04-01T08:27:33;98259.47;;;9.70;100.00
70133;BME280;57495;49.922;7.966;2023-04-01T08:29:40;98264.06;;;9.76;100.00
70133;BME280;57495;49.922;7.966;2023-04-01T08:31:49;98264.72;;;9.78;100.00
70133;BME280;57495;49.922;7.966;2023-04-01T08:33:53;98270.41;;;9.75;100.00
70133;BME280;57495;49.922;7.966;2023-04-01T08:35:59;98264.06;;;9.76;100.00
70133;BME280;57495;49.922;7.966;2023-04-01T08:38:07;98260.66;;;9.82;100.00
70133;BME280;57495;49.922;7.966;2023-04-01T08:40:33;98272.00;;;9.84;100.00
70133;BME280;57495;49.922;7.966;2023-04-01T08:42:50;98267.97;;;9.89;100.00
70133;BME280;57495;49.922;7.966;2023-04-01T08:50:24;98267.22;;;9.80;100.00
70133;BME280;57495;49.922;7.966;2023-04-01T08:52:33;98272.72;;;9.78;100.00
70133;BME280;57495;49.922;7.966;2023-04-01T08:54:46;98278.06;;;9.78;100.00
70133;BME280;57495;49.922;7.966;2023-04-01T08:56:59;98278.41;;;9.75;100.00
70133;BME280;57495;49.922;7.966;2023-04-01T08:59:17;98277.44;;;9.76;100.00
70133;BME280;57495;49.922;7.966;2023-04-01T09:01:36;98284.44;;;9.77;100.00
70133;BME280;57495;49.922;7.966;2023-04-01T09:03:53;98279.75;;;9.79;100.00
70133;BME280;57495;49.922;7.966;2023-04-01T09:06:12;98284.69;;;9.82;100.00
70133;BME280;57495;49.922;7.966;2023-04-01T09:08:31;98283.34;;;9.86;100.00
70133;BME280;57495;49.922;7.966;2023-04-01T09:10:49;98284.53;;;9.84;100.00
70133;BME280;57495;49.922;7.966;2023-04-01T09:13:06;98281.13;;;9.90;100.00
70133;BME280;57495;49.922;7.966;2023-04-01T09:15:48;98278.28;;;9.92;100.00
70133;BME280;57495;49.922;7.966;2023-04-01T09:18:14;98288.59;;;9.95;100.00
70133;BME280;57495;49.922;7.966;2023-04-01T09:20:39;98290.72;;;9.99;100.00
70133;BME280;57495;49.922;7.966;2023-04-01T09:22:59;98286.50;;;10.05;100.00
70133;BME280;57495;49.922;7.966;2023-04-01T09:25:26;98288.44;;;10.11;100.00
70133;BME280;57495;49.922;7.966;2023-04-01T09:27:36;98290.19;;;10.19;100.00
70133;BME280;57495;49.922;7.966;2023-04-01T09:30:05;98289.25;;;10.26;100.00
70133;BME280;57495;49.922;7.966;2023-04-01T09:32:22;98288.59;;;10.33;100.00
70133;BME280;57495;49.922;7.966;2023-04-01T09:34:51;98295.38;;;10.35;100.00
70133;BME280;57495;49.922;7.966;2023-04-01T09:37:07;98296.84;;;10.38;100.00
70133;BME280;57495;49.922;7.966;2023-04-01T09:39:34;98290.50;;;10.39;100.00
70133;BME280;57495;49.922;7.966;2023-04-01T09:41:40;98293.34;;;10.37;100.00
70133;BME280;57495;49.922;7.966;2023-04-01T09:44:02;98298.69;;;10.37;100.00
70133;BME280;57495;49.922;7.966;2023-04-01T09:46:16;98295.03;;;10.38;100.00
70133;BME280;57495;49.922;7.966;2023-04-01T09:48:33;98296.59;;;10.33;100.00
70133;BME280;57495;49.922;7.966;2023-04-01T09:50:45;98299.28;;;10.33;100.00
70133;BME280;57495;49.922;7.966;2023-04-01T09:52:57;98307.28;;;10.33;100.00
70133;BME280;57495;49.922;7.966;2023-04-01T09:55:19;98313.94;;;10.29;100.00
70133;BME280;57495;49.922;7.966;2023-04-01T10:03:32;98321.16;;;10.28;100.00
70133;BME280;57495;49.922;7.966;2023-04-01T10:06:06;98319.97;;;10.31;100.00
70133;BME280;57495;49.922;7.966;2023-04-01T10:08:39;98323.31;;;10.33;100.00
70133;BME280;57495;49.922;7.966;2023-04-01T10:11:21;98327.91;;;10.39;100.00
70133;BME280;57495;49.922;7.966;2023-04-01T10:13:38;98319.78;;;10.47;100.00
70133;BME280;57495;49.922;7.966;2023-04-01T10:19:00;98323.50;;;10.46;100.00
70133;BME280;57495;49.922;7.966;2023-04-01T10:24:23;98334.25;;;10.38;100.00
70133;BME280;57495;49.922;7.966;2023-04-01T10:26:55;98334.53;;;10.43;100.00
70133;BME280;57495;49.922;7.966;2023-04-01T10:29:25;98331.13;;;10.49;100.00
70133;BME280;57495;49.922;7.966;2023-04-01T10:31:51;98332.50;;;10.45;100.00
70133;BME280;57495;49.922;7.966;2023-04-01T10:36:53;98326.06;;;10.54;100.00
70133;BME280;57495;49.922;7.966;2023-04-01T10:39:17;98324.88;;;10.57;100.00
70133;BME280;57495;49.922;7.966;2023-04-01T10:47:12;98329.03;;;10.44;100.00
70133;BME280;57495;49.922;7.966;2023-04-01T10:49:41;98330.59;;;10.39;100.00
70133;BME280;57495;49.922;7.966;2023-04-01T10:54:40;98323.84;;;10.43;100.00
70133;BME280;57495;49.922;7.966;2023-04-01T10:56:55;98330.75;;;10.37;100.00
70133;BME280;57495;49.922;7.966;2023-04-01T10:59:18;98321.00;;;10.44;100.00
70133;BME280;57495;49.922;7.966;2023-04-01T11:01:53;98324.13;;;10.48;100.00
70133;BME280;57495;49.922;7.966;2023-04-01T11:04:41;98326.44;;;10.51;100.00
70133;BME280;57495;49.922;7.966;2023-04-01T11:07:36;98340.53;;;10.45;100.00
70133;BME280;57495;49.922;7.966;2023-04-01T11:12:50;98331.22;;;10.41;100.00
70133;BME280;57495;49.922;7.966;2023-04-01T11:18:00;98326.44;;;10.51;100.00
70133;BME280;57495;49.922;7.966;2023-04-01T11:20:42;98323.56;;;10.68;100.00
70133;BME280;57495;49.922;7.966;2023-04-01T11:22:54;98320.16;;;10.74;100.00
70133;BME280;57495;49.922;7.966;2023-04-01T11:25:29;98327.53;;;10.72;100.00
70133;BME280;57495;49.922;7.966;2023-04-01T11:27:51;98329.28;;;10.79;100.00
70133;BME280;57495;49.922;7.966;2023-04-01T11:30:29;98330.44;;;10.92;100.00
70133;BME280;57495;49.922;7.966;2023-04-01T11:32:43;98325.22;;;10.83;100.00
70133;BME280;57495;49.922;7.966;2023-04-01T11:34:59;98336.72;;;10.84;100.00
70133;BME280;57495;49.922;7.966;2023-04-01T11:37:10;98327.97;;;10.90;100.00
70133;BME280;57495;49.922;7.966;2023-04-01T11:39:22;98332.22;;;10.99;100.00
70133;BME280;57495;49.922;7.966;2023-04-01T11:41:32;98334.03;;;10.99;100.00
70133;BME280;57495;49.922;7.966;2023-04-01T11:43:39;98332.19;;;11.14;100.00
70133;BME280;57495;49.922;7.966;2023-04-01T11:45:48;98335.19;;;11.26;100.00
70133;BME280;57495;49.922;7.966;2023-04-01T11:48:00;98340.06;;;11.59;100.00
70133;BME280;57495;49.922;7.966;2023-04-01T11:50:18;98332.41;;;11.56;100.00
70133;BME280;57495;49.922;7.966;2023-04-01T11:52:32;98342.69;;;11.80;100.00
70133;BME280;57495;49.922;7.966;2023-04-01T11:55:02;98336.16;;;11.83;100.00
70133;BME280;57495;49.922;7.966;2023-04-01T11:57:31;98345.50;;;11.51;100.00
70133;BME280;57495;49.922;7.966;2023-04-01T11:59:49;98362.94;;;11.25;100.00